< < Back
Terminal Aerodrome Forecast


Current Version              Previous Versions:   1  2  3  4  5  6  7  8  9  

Terminal Aerodrome Forecast

405
FTUS42 KFFC 061124
TAFPDK
TAF
KPDK 061124Z 0612/0712 00000KT P6SM SKC
     FM061700 10004KT P6SM FEW050
     FM062300 15003KT P6SM SKC
     FM070000 00000KT P6SM SKC=



Latest METAR

000
SAUS70 KWBC 062200 RRA
MTRPDK
METAR KPDK 062153Z 10005KT 8SM CLR 27/11 A3012 RMK AO2 SLP190
T02670111


USA.gov is the U.S. government's official web portal to all federal, state and local government web resources and services.